Time;durP1;ratioP1;P1;durP2;ratioP2;P2;SDS_P1;SDS_P2;PMS_P1;PMS_P2;Temp;Humidity;BMP_temperature;BMP_pressure;BME280_temperature;BME280_humidity;BME280_pressure;Samples;Min_cycle;Max_cycle;Signal;HPM_P1;HPM_P2
2023/01/18 00:00:31;;;;;;;5.90;1.20;;;;;;;12.12;53.08;93576.28;4942179;28;20039;-74
2023/01/18 00:02:56;;;;;;;6.20;0.90;;;;;;;11.87;53.33;93519.53;4935661;29;20516;-74
2023/01/18 00:05:23;;;;;;;5.07;1.13;;;;;;;11.84;53.16;93519.38;4953030;29;20039;-74
2023/01/18 00:07:49;;;;;;;1.98;1.02;;;;;;;11.84;53.37;93519.38;4952870;29;20031;-74
2023/01/18 00:10:15;;;;;;;4.00;1.05;;;;;;;12.03;53.52;93538.34;4935818;29;20083;-74
2023/01/18 00:12:40;;;;;;;4.20;1.20;;;;;;;11.64;53.94;93520.88;4953009;29;20098;-74
2023/01/18 00:15:07;;;;;;;4.13;1.33;;;;;;;11.94;53.84;93559.66;4953206;29;20035;-74
2023/01/18 00:17:32;;;;;;;9.85;1.90;;;;;;;11.49;54.70;93514.22;4953049;28;20573;-74
2023/01/18 00:19:58;;;;;;;4.53;1.25;;;;;;;11.70;54.80;93551.44;4935916;29;20070;-74
2023/01/18 00:22:23;;;;;;;7.10;1.40;;;;;;;11.58;54.65;93551.34;4953451;29;20118;-74
2023/01/18 00:24:48;;;;;;;3.13;1.10;;;;;;;11.57;55.05;93555.88;4953701;29;20071;-74
2023/01/18 00:27:14;;;;;;;5.60;1.45;;;;;;;11.29;54.81;93498.97;4936019;29;20094;-74
2023/01/18 00:29:39;;;;;;;3.63;1.20;;;;;;;11.68;55.01;93566.91;4938517;29;20125;-74
2023/01/18 00:32:05;;;;;;;5.30;1.40;;;;;;;11.24;55.84;93523.03;4957068;29;20031;-74
2023/01/18 00:34:31;;;;;;;7.22;1.60;;;;;;;11.61;55.18;93583.34;4956899;29;20054;-74
2023/01/18 00:36:56;;;;;;;2.45;1.00;;;;;;;11.63;55.24;93558.34;4956750;29;20047;-74
2023/01/18 00:39:21;;;;;;;4.78;1.30;;;;;;;11.48;55.65;93573.72;4956503;29;20046;-74
2023/01/18 00:44:31;;;;;;;5.65;1.90;;;;;;;11.41;54.90;93548.75;4956938;29;20105;-74
2023/01/18 00:46:56;;;;;;;3.80;1.58;;;;;;;11.40;55.91;93557.81;4938486;28;20508;-74
2023/01/18 00:49:22;;;;;;;6.32;1.35;;;;;;;11.38;55.59;93547.50;4938234;29;20047;-74
2023/01/18 00:51:48;;;;;;;6.13;1.67;;;;;;;11.49;55.22;93569.97;4955994;28;20031;-74
2023/01/18 00:54:13;;;;;;;4.38;1.60;;;;;;;11.16;55.69;93526.50;4938854;28;20485;-74
2023/01/18 00:56:39;;;;;;;3.53;1.65;;;;;;;11.05;55.88;93504.06;4955864;28;20038;-74
2023/01/18 00:59:04;;;;;;;5.80;1.35;;;;;;;11.34;55.79;93546.59;4955655;29;20071;-74
2023/01/18 01:01:30;;;;;;;3.45;0.90;;;;;;;11.42;55.08;93545.00;4956352;28;20662;-74
2023/01/18 01:06:45;;;;;;;9.65;1.50;;;;;;;11.14;55.17;93518.06;4955743;29;20126;-74
2023/01/18 01:09:23;;;;;;;6.03;1.73;;;;;;;11.14;55.78;93507.47;4956139;29;20114;-74
2023/01/18 01:28:15;;;;;;;6.85;1.40;;;;;;;11.63;54.72;93564.44;4955773;29;20090;-74
2023/01/18 01:30:40;;;;;;;2.65;1.08;;;;;;;11.70;54.94;93566.59;4937749;29;20163;-73
2023/01/18 01:33:06;;;;;;;6.95;1.80;;;;;;;11.55;55.75;93571.34;4937851;29;20049;-73
2023/01/18 01:35:31;;;;;;;9.30;1.83;;;;;;;11.51;55.99;93567.78;4955014;29;20042;-74
2023/01/18 01:37:56;;;;;;;6.13;1.45;;;;;;;11.22;55.97;93496.03;4937864;29;20578;-74
2023/01/18 01:40:23;;;;;;;5.47;2.33;;;;;;;11.53;56.52;93567.44;4937240;29;20107;-74
2023/01/18 01:42:48;;;;;;;6.82;1.48;;;;;;;11.61;56.11;93575.38;4937766;29;20074;-74
2023/01/18 01:45:14;;;;;;;2.92;1.60;;;;;;;11.54;56.04;93564.47;4937890;29;20122;-74
2023/01/18 01:47:41;;;;;;;3.58;1.52;;;;;;;11.25;56.23;93523.81;4937838;29;20484;-74
2023/01/18 01:50:25;;;;;;;13.43;2.00;;;;;;;11.38;57.34;93560.00;4937737;29;20062;-74
2023/01/18 01:52:50;;;;;;;6.15;1.40;;;;;;;10.82;56.66;93514.09;4954665;29;20043;-74
2023/01/18 01:55:27;;;;;;;3.35;1.25;;;;;;;11.36;57.11;93588.75;4954695;29;20144;-74
2023/01/18 01:58:17;;;;;;;2.58;1.10;;;;;;;11.44;56.09;93601.97;4953765;28;20110;-74
2023/01/18 02:00:44;;;;;;;2.90;1.20;;;;;;;11.30;56.46;93584.69;4937915;29;20059;-74
2023/01/18 02:03:12;;;;;;;3.40;1.27;;;;;;;11.51;56.00;93594.31;4937314;29;20086;-74
2023/01/18 02:05:44;;;;;;;4.78;1.92;;;;;;;11.28;56.15;93542.56;4938024;29;20038;-75
2023/01/18 02:08:11;;;;;;;6.55;1.75;;;;;;;11.35;57.11;93576.56;4937254;28;20039;-74
2023/01/18 02:10:37;;;;;;;5.53;1.80;;;;;;;11.34;57.42;93582.97;4955037;29;20519;-74
2023/01/18 02:13:06;;;;;;;4.10;1.63;;;;;;;11.29;57.18;93583.16;4954239;29;20062;-75
2023/01/18 02:15:54;;;;;;;4.55;1.20;;;;;;;11.36;56.57;93576.25;4955118;29;20035;-74
2023/01/18 02:18:29;;;;;;;6.35;1.10;;;;;;;11.38;56.94;93560.78;4954771;28;20075;-74
2023/01/18 02:21:27;;;;;;;2.92;1.30;;;;;;;11.42;56.12;93567.03;4954668;29;20039;-74
2023/01/18 02:24:01;;;;;;;7.60;1.00;;;;;;;11.54;55.94;93582.28;4955158;29;20063;-74
2023/01/18 02:26:48;;;;;;;6.15;1.23;;;;;;;11.51;55.65;93581.06;4937121;29;20031;-74
2023/01/18 02:29:16;;;;;;;8.48;1.10;;;;;;;11.44;55.21;93540.91;4954757;29;20042;-74
2023/01/18 02:32:07;;;;;;;5.88;1.23;;;;;;;11.66;54.87;93557.72;4954818;29;20046;-74
2023/01/18 02:34:54;;;;;;;10.63;1.10;;;;;;;11.61;55.03;93561.31;4937207;29;20126;-74
2023/01/18 02:37:29;;;;;;;5.18;1.17;;;;;;;11.53;54.71;93523.09;4955084;29;20113;-74
2023/01/18 02:39:58;;;;;;;3.63;1.10;;;;;;;11.89;54.18;93583.75;4954541;29;20437;-74
2023/01/18 02:48:29;;;;;;;4.70;1.20;;;;;;;11.76;53.67;93505.03;4954746;28;20042;-74
2023/01/18 02:50:54;;;;;;;4.57;1.30;;;;;;;12.01;53.72;93559.16;4955158;29;20043;-75
2023/01/18 02:53:19;;;;;;;4.38;1.42;;;;;;;11.74;54.12;93493.19;4954232;28;20524;-74
2023/01/18 02:56:00;;;;;;;16.33;1.67;;;;;;;11.99;54.87;93569.31;4937035;29;20137;-75
2023/01/18 02:58:52;;;;;;;9.10;1.58;;;;;;;11.90;55.14;93592.50;4964230;28;20537;-76
2023/01/18 03:01:35;;;;;;;3.45;1.48;;;;;;;11.79;55.03;93601.91;4925754;28;20111;-76
2023/01/18 03:04:13;;;;;;;8.60;1.40;;;;;;;11.06;55.00;93452.56;4950597;29;20035;-76
2023/01/18 03:06:43;;;;;;;4.32;1.17;;;;;;;11.70;55.34;93554.09;4952001;29;20039;-76
2023/01/18 03:09:09;;;;;;;2.25;1.13;;;;;;;11.87;55.54;93604.53;4951874;28;20509;-76
2023/01/18 03:11:53;;;;;;;6.10;1.40;;;;;;;11.53;56.76;93562.13;4934747;29;20118;-76
2023/01/18 03:14:35;;;;;;;4.28;1.10;;;;;;;11.85;54.67;93595.31;4952481;29;20035;-76
2023/01/18 03:17:17;;;;;;;4.07;1.13;;;;;;;11.69;54.20;93563.16;4951901;29;20584;-76
2023/01/18 03:20:07;;;;;;;6.28;1.10;;;;;;;11.89;54.22;93573.13;4953987;28;20055;-76
2023/01/18 03:25:40;;;;;;;6.40;1.10;;;;;;;11.97;53.71;93568.88;4971487;28;20135;-76
2023/01/18 03:33:52;;;;;;;6.88;1.25;;;;;;;12.27;51.50;93524.44;4971530;28;20101;-76
2023/01/18 03:36:32;;;;;;;3.03;0.93;;;;;;;12.30;51.62;93490.00;4953770;28;20039;-76
2023/01/18 03:39:15;;;;;;;9.88;1.33;;;;;;;12.53;51.80;93543.63;4971032;28;20037;-76
2023/01/18 03:41:44;;;;;;;7.28;1.55;;;;;;;12.24;52.05;93522.44;4953801;28;20555;-76
2023/01/18 03:44:20;;;;;;;5.70;0.95;;;;;;;12.52;50.87;93534.09;4953858;28;20039;-76
2023/01/18 03:46:46;;;;;;;5.70;1.25;;;;;;;12.62;50.66;93559.53;4971169;28;20034;-76
2023/01/18 03:49:12;;;;;;;4.93;1.35;;;;;;;12.54;50.81;93539.09;4953781;28;20030;-76
2023/01/18 03:51:58;;;;;;;4.40;1.40;;;;;;;12.80;50.21;93545.00;4961496;28;20487;-76
2023/01/18 03:54:29;;;;;;;2.83;0.80;;;;;;;12.71;50.66;93574.31;4951800;28;20118;-77
2023/01/18 03:57:22;;;;;;;6.22;1.85;;;;;;;12.31;50.78;93504.09;4934105;29;20058;-77
2023/01/18 03:59:47;;;;;;;3.35;0.93;;;;;;;12.74;50.31;93556.91;4951779;29;20050;-76
2023/01/18 04:02:16;;;;;;;5.22;1.17;;;;;;;12.53;50.97;93534.88;4934346;29;20035;-76
2023/01/18 04:04:42;;;;;;;6.07;0.93;;;;;;;12.46;50.27;93516.78;4954066;28;20134;-76
2023/01/18 04:07:07;;;;;;;6.38;1.40;;;;;;;12.83;49.62;93570.16;4937972;29;20114;-76
2023/01/18 04:09:33;;;;;;;5.45;1.02;;;;;;;12.65;49.96;93561.56;4955211;29;20102;-76
2023/01/18 04:11:58;;;;;;;12.18;1.98;;;;;;;12.58;50.25;93561.28;4954534;28;20522;-76
2023/01/18 04:14:23;;;;;;;5.00;1.20;;;;;;;12.71;50.32;93581.53;4954928;28;20334;-76
2023/01/18 04:16:49;;;;;;;13.15;1.80;;;;;;;12.67;50.41;93554.78;4954878;28;20043;-76
2023/01/18 04:19:15;;;;;;;6.75;1.45;;;;;;;12.70;49.56;93556.03;4922844;29;20063;-76
2023/01/18 04:21:41;;;;;;;5.20;1.00;;;;;;;12.43;50.05;93525.44;4937573;29;20501;-76
2023/01/18 04:24:06;;;;;;;5.75;1.30;;;;;;;12.76;49.83;93589.28;4955152;28;20082;-76
2023/01/18 04:26:33;;;;;;;11.02;1.52;;;;;;;12.58;50.18;93559.41;4937442;29;20070;-76
2023/01/18 04:28:59;;;;;;;7.05;1.15;;;;;;;12.63;49.62;93537.94;4955116;29;20501;-76
2023/01/18 04:31:24;;;;;;;10.27;1.30;;;;;;;12.89;49.07;93543.00;4954836;29;20041;-76
2023/01/18 04:33:50;;;;;;;6.38;1.40;;;;;;;12.86;49.06;93558.88;4955150;28;20142;-75
2023/01/18 04:36:20;;;;;;;11.35;1.05;;;;;;;12.98;49.06;93556.25;4955214;29;20042;-76
2023/01/18 04:38:45;;;;;;;6.78;1.17;;;;;;;12.69;49.28;93517.22;4954697;28;20027;-76
2023/01/18 04:41:11;;;;;;;4.95;1.02;;;;;;;12.95;49.25;93538.28;4937466;29;20042;-76
2023/01/18 04:43:36;;;;;;;9.27;1.15;;;;;;;13.01;49.10;93556.38;4954539;29;20109;-76
2023/01/18 04:46:02;;;;;;;7.68;1.38;;;;;;;12.71;49.08;93509.72;4937601;29;20031;-76
2023/01/18 04:48:27;;;;;;;8.88;1.60;;;;;;;13.03;49.06;93486.88;4937364;29;20035;-76
2023/01/18 04:50:53;;;;;;;5.78;1.15;;;;;;;12.72;49.33;93505.94;4954467;29;20038;-76
2023/01/18 04:53:19;;;;;;;4.97;1.30;;;;;;;12.60;49.43;93479.28;4954790;29;20086;-76
2023/01/18 04:55:45;;;;;;;8.02;1.45;;;;;;;12.97;49.31;93534.19;4953674;29;20132;-76
2023/01/18 04:58:10;;;;;;;7.22;1.17;;;;;;;13.03;49.15;93550.75;4932679;28;20464;-76
2023/01/18 05:00:39;;;;;;;6.05;1.27;;;;;;;13.03;48.77;93546.19;4949790;29;20142;-76
2023/01/18 05:03:06;;;;;;;8.15;1.40;;;;;;;12.67;48.68;93532.72;4936805;29;20031;-76
2023/01/18 05:05:32;;;;;;;9.02;1.55;;;;;;;12.33;49.13;93462.00;4933111;29;20394;-76
2023/01/18 05:07:57;;;;;;;4.78;1.38;;;;;;;11.76;48.97;93356.31;4952578;28;20042;-76
2023/01/18 05:10:23;;;;;;;7.25;1.48;;;;;;;12.96;48.76;93532.66;4935437;29;20138;-76
2023/01/18 05:12:48;;;;;;;7.07;1.85;;;;;;;12.77;48.64;93535.78;4930924;29;20038;-76
2023/01/18 05:15:17;;;;;;;5.68;1.88;;;;;;;12.86;49.22;93540.25;4931268;29;20311;-76
2023/01/18 05:17:42;;;;;;;5.60;1.05;;;;;;;13.07;48.95;93555.06;4932531;28;20062;-75
2023/01/18 05:20:10;;;;;;;29.85;1.98;;;;;;;12.82;48.75;93510.84;4933503;28;20125;-76
2023/01/18 05:22:36;;;;;;;8.38;1.67;;;;;;;13.14;48.50;93536.72;4938979;29;20184;-76
2023/01/18 05:25:03;;;;;;;7.00;1.63;;;;;;;12.69;48.53;93464.81;4919618;28;20095;-76
2023/01/18 05:27:28;;;;;;;8.30;1.33;;;;;;;12.85;48.88;93506.75;4936637;28;20484;-76
2023/01/18 05:29:54;;;;;;;9.48;1.60;;;;;;;12.73;48.47;93508.28;4929950;28;20043;-76
2023/01/18 05:32:19;;;;;;;6.18;1.38;;;;;;;12.87;48.13;93531.16;4912926;28;20205;-76
2023/01/18 05:34:44;;;;;;;6.15;1.40;;;;;;;13.29;47.90;93579.78;4935432;28;20038;-76
2023/01/18 05:37:10;;;;;;;4.25;1.30;;;;;;;13.33;47.99;93581.47;4934285;28;20360;-76
2023/01/18 05:39:36;;;;;;;7.25;1.50;;;;;;;12.89;47.67;93523.63;4921233;28;20027;-76
2023/01/18 05:42:02;;;;;;;11.20;2.05;;;;;;;12.82;48.28;93510.84;4943723;28;20074;-76
2023/01/18 05:44:27;;;;;;;4.70;1.15;;;;;;;12.97;48.00;93533.44;4942883;28;20517;-76
2023/01/18 05:46:53;;;;;;;8.90;1.25;;;;;;;12.36;48.08;93426.78;4943455;28;20043;-76
2023/01/18 05:49:18;;;;;;;6.10;1.35;;;;;;;13.30;47.82;93557.38;4941186;28;20035;-76
2023/01/18 05:51:44;;;;;;;10.52;2.65;;;;;;;12.90;48.20;93533.94;4942743;28;20097;-76
2023/01/18 05:54:10;;;;;;;11.90;1.45;;;;;;;13.06;48.15;93572.13;4926069;28;20047;-76
2023/01/18 05:56:36;;;;;;;10.60;1.50;;;;;;;12.97;48.08;93547.47;4939327;28;20530;-78
2023/01/18 05:59:01;;;;;;;7.40;1.27;;;;;;;12.68;47.81;93513.78;4919900;28;20117;-76
2023/01/18 06:01:27;;;;;;;6.68;1.40;;;;;;;13.20;47.20;93571.13;4938671;28;20074;-76
2023/01/18 06:03:52;;;;;;;5.60;1.13;;;;;;;13.56;46.89;93573.09;4920454;28;20027;-78
2023/01/18 06:06:18;;;;;;;4.68;1.38;;;;;;;13.51;47.26;93568.75;4933383;28;20110;-78
2023/01/18 06:08:43;;;;;;;7.85;1.52;;;;;;;13.44;48.09;93587.94;4937164;28;20057;-79
2023/01/18 06:11:09;;;;;;;11.73;1.65;;;;;;;13.17;47.19;93526.53;4920014;28;20035;-77
2023/01/18 06:13:34;;;;;;;5.18;1.38;;;;;;;13.02;47.64;93506.59;4912531;28;20874;-78
2023/01/18 06:16:01;;;;;;;16.17;2.40;;;;;;;13.15;47.63;93521.53;4919997;28;20043;-79
2023/01/18 06:18:29;;;;;;;6.72;1.35;;;;;;;13.11;47.89;93528.59;4919604;28;20050;-79
2023/01/18 06:20:56;;;;;;;6.88;1.63;;;;;;;13.02;47.56;93518.03;4938409;28;20031;-79
2023/01/18 06:23:22;;;;;;;6.13;1.42;;;;;;;13.20;47.94;93557.81;4935031;28;20097;-79
2023/01/18 06:25:48;;;;;;;11.20;1.40;;;;;;;13.09;48.07;93562.72;4921597;28;20090;-79
2023/01/18 06:28:13;;;;;;;7.03;1.95;;;;;;;12.98;47.97;93511.78;4901942;29;20027;-80
2023/01/18 06:30:41;;;;;;;7.00;1.33;;;;;;;13.00;47.84;93570.00;4920150;28;20685;-79
2023/01/18 06:33:07;;;;;;;12.23;2.03;;;;;;;13.47;48.00;93605.91;4916474;28;20031;-79
2023/01/18 06:35:33;;;;;;;11.07;1.85;;;;;;;13.52;48.46;93618.25;4914775;28;20039;-78
2023/01/18 06:37:59;;;;;;;8.23;1.20;;;;;;;13.10;48.41;93553.66;4912361;28;20042;-79
2023/01/18 06:40:24;;;;;;;7.28;1.52;;;;;;;13.54;48.46;93626.69;4933214;28;20035;-79
2023/01/18 06:42:50;;;;;;;13.40;1.63;;;;;;;13.52;48.82;93576.41;4936195;28;20440;-82
2023/01/18 06:45:18;;;;;;;9.43;1.92;;;;;;;13.57;49.24;93591.41;4899435;28;20158;-77
2023/01/18 06:47:43;;;;;;;6.75;1.45;;;;;;;13.30;49.10;93539.53;4906073;28;20039;-77
2023/01/18 06:50:10;;;;;;;11.68;1.70;;;;;;;13.13;49.13;93527.16;4913253;28;20037;-80
2023/01/18 06:52:36;;;;;;;10.85;1.88;;;;;;;13.43;49.30;93561.63;4925443;28;20035;-79
2023/01/18 06:55:01;;;;;;;11.50;2.20;;;;;;;13.53;49.16;93612.59;4915395;28;20413;-81
2023/01/18 06:57:27;;;;;;;8.82;1.60;;;;;;;13.40;49.12;93568.41;4914760;28;20146;-79
2023/01/18 06:59:52;;;;;;;10.68;1.30;;;;;;;13.42;49.45;93566.19;4920171;28;20106;-80
2023/01/18 07:02:18;;;;;;;9.32;1.65;;;;;;;13.55;49.40;93585.63;4916353;28;20031;-79
2023/01/18 07:04:44;;;;;;;28.13;2.72;;;;;;;12.63;48.89;93454.72;4933373;28;20040;-78
2023/01/18 07:07:11;;;;;;;12.20;1.77;;;;;;;13.70;49.04;93573.56;4930619;28;20226;-78
2023/01/18 07:09:36;;;;;;;6.00;1.35;;;;;;;13.77;48.68;93568.47;4932818;28;20047;-78
2023/01/18 07:12:02;;;;;;;11.90;1.65;;;;;;;13.69;48.26;93572.00;4931982;28;20402;-78
2023/01/18 07:14:27;;;;;;;10.30;2.10;;;;;;;13.49;48.55;93502.50;4928195;28;20039;-79
2023/01/18 07:16:53;;;;;;;7.60;1.70;;;;;;;13.51;48.15;93529.56;4913961;29;20035;-78
2023/01/18 07:19:18;;;;;;;9.30;1.27;;;;;;;13.80;48.39;93602.44;4913984;28;20078;-78
2023/01/18 07:21:47;;;;;;;19.10;2.30;;;;;;;13.36;48.66;93495.59;4932478;28;20031;-79
2023/01/18 07:24:12;;;;;;;8.93;2.03;;;;;;;13.59;47.78;93533.25;4899872;29;20150;-79
2023/01/18 07:26:38;;;;;;;11.68;2.22;;;;;;;12.92;48.09;93435.16;4914093;28;20063;-83
2023/01/18 07:29:03;;;;;;;7.35;1.52;;;;;;;13.86;48.18;93551.25;4918045;28;20538;-83
2023/01/18 07:31:29;;;;;;;12.27;1.88;;;;;;;13.98;47.97;93593.13;4924165;28;20056;-79
2023/01/18 07:33:54;;;;;;;14.15;1.70;;;;;;;13.83;47.75;93535.16;4936696;28;20031;-81
2023/01/18 07:36:21;;;;;;;9.73;1.77;;;;;;;13.65;47.84;93521.28;4921028;29;20043;-80
2023/01/18 07:38:47;;;;;;;16.55;2.05;;;;;;;13.92;47.95;93591.78;4922851;28;20490;-78
2023/01/18 07:41:14;;;;;;;15.45;1.75;;;;;;;14.08;47.28;93602.56;4939310;28;20389;-77
2023/01/18 07:43:42;;;;;;;8.48;1.73;;;;;;;13.65;47.26;93611.06;4917834;29;20059;-78
2023/01/18 07:46:11;;;;;;;12.00;1.83;;;;;;;14.06;47.76;93610.13;4915430;29;20454;-80
2023/01/18 07:48:36;;;;;;;16.75;2.67;;;;;;;13.47;47.63;93544.66;4916209;29;20429;-78
2023/01/18 07:51:04;;;;;;;6.90;1.27;;;;;;;13.20;46.69;93494.69;4936220;28;20524;-80
2023/01/18 07:53:34;;;;;;;15.05;1.92;;;;;;;13.93;46.73;93617.31;4938861;28;20042;-78
2023/01/18 07:56:01;;;;;;;8.85;1.70;;;;;;;14.18;46.58;93668.78;4921652;28;20130;-78
2023/01/18 07:58:27;;;;;;;17.25;2.03;;;;;;;13.88;47.11;93642.28;4924830;28;20035;-78
2023/01/18 08:00:52;;;;;;;8.30;1.70;;;;;;;14.14;46.61;93665.22;4907068;28;20028;-78
2023/01/18 08:03:21;;;;;;;17.08;2.65;;;;;;;14.24;47.17;93648.78;4938912;28;20042;-79
2023/01/18 08:05:46;;;;;;;11.57;1.45;;;;;;;13.97;47.15;93633.41;4930332;28;20338;-79
2023/01/18 08:08:14;;;;;;;15.50;2.85;;;;;;;14.12;47.40;93654.88;4921380;28;20039;-78
2023/01/18 08:10:40;;;;;;;9.07;2.20;;;;;;;13.55;47.39;93579.53;4938796;28;20035;-78
2023/01/18 08:13:10;;;;;;;11.32;1.48;;;;;;;13.58;47.36;93618.81;4936150;28;20337;-80
2023/01/18 08:15:39;;;;;;;9.20;2.13;;;;;;;13.88;47.16;93670.84;4918661;28;20055;-81
2023/01/18 08:18:06;;;;;;;5.00;1.52;;;;;;;14.29;47.09;93742.66;4919753;28;20731;-83
2023/01/18 08:20:32;;;;;;;5.15;1.20;;;;;;;14.02;46.99;93697.19;4923216;28;20023;-79
2023/01/18 08:22:59;;;;;;;16.45;1.40;;;;;;;14.12;47.11;93721.53;4923125;28;20359;-79
2023/01/18 08:25:29;;;;;;;8.52;1.85;;;;;;;14.35;47.22;93759.22;4917404;28;20031;-78
2023/01/18 08:27:58;;;;;;;32.78;4.07;;;;;;;14.29;47.42;93742.66;4933265;28;20031;-78
2023/01/18 08:30:27;;;;;;;20.52;2.30;;;;;;;14.23;47.85;93757.31;4916347;28;20088;-78
2023/01/18 08:32:57;;;;;;;14.80;1.95;;;;;;;14.29;47.90;93758.66;4936888;28;20046;-78
2023/01/18 08:35:25;;;;;;;15.93;2.60;;;;;;;14.30;47.69;93743.44;4932044;28;20138;-78
2023/01/18 08:37:51;;;;;;;7.40;1.60;;;;;;;13.57;47.44;93618.03;4938492;28;20039;-77
2023/01/18 08:40:18;;;;;;;10.52;1.48;;;;;;;14.26;47.26;93746.00;4936519;28;20058;-76
2023/01/18 08:42:44;;;;;;;10.63;2.20;;;;;;;14.26;47.58;93724.69;4922365;28;20031;-77
2023/01/18 08:45:10;;;;;;;8.38;1.50;;;;;;;13.73;47.61;93685.56;4920188;28;20039;-76
2023/01/18 08:47:35;;;;;;;13.75;1.90;;;;;;;13.50;48.34;93639.13;4939822;28;20039;-77
2023/01/18 08:50:00;;;;;;;13.23;1.42;;;;;;;14.15;48.47;93741.41;4920309;28;20113;-78
2023/01/18 08:52:26;;;;;;;8.57;1.65;;;;;;;13.85;48.30;93720.25;4916073;28;20047;-78
2023/01/18 08:54:51;;;;;;;6.43;1.33;;;;;;;13.93;48.51;93726.59;4936233;28;20046;-78
2023/01/18 08:57:19;;;;;;;8.95;1.58;;;;;;;13.79;48.39;93678.94;4939430;28;20502;-79
2023/01/18 08:59:44;;;;;;;8.95;1.40;;;;;;;13.63;48.09;93662.00;4933512;28;20050;-77
2023/01/18 09:02:10;;;;;;;9.65;1.90;;;;;;;13.95;48.37;93737.72;4931124;28;20039;-77
2023/01/18 09:04:35;;;;;;;12.15;1.88;;;;;;;14.32;48.03;93793.78;4938331;28;20106;-78
2023/01/18 09:07:01;;;;;;;12.70;1.60;;;;;;;13.86;47.91;93724.47;4924437;28;20148;-77
2023/01/18 09:09:27;;;;;;;12.77;1.45;;;;;;;14.23;47.76;93751.22;4922626;28;20042;-77
2023/01/18 09:11:52;;;;;;;8.80;1.98;;;;;;;14.03;48.05;93728.06;4916601;28;20039;-77
2023/01/18 09:14:18;;;;;;;10.05;1.60;;;;;;;14.30;48.10;93781.56;4938922;28;20141;-77
2023/01/18 09:16:44;;;;;;;10.52;1.85;;;;;;;14.14;47.90;93767.28;4917459;28;20035;-76
2023/01/18 09:19:10;;;;;;;9.02;1.75;;;;;;;14.38;47.90;93774.59;4936385;28;20142;-77
2023/01/18 09:21:35;;;;;;;14.23;2.20;;;;;;;14.37;48.16;93810.34;4937908;28;20078;-77
2023/01/18 09:24:01;;;;;;;15.63;2.00;;;;;;;13.99;48.38;93741.25;4919057;28;20823;-77
2023/01/18 09:26:29;;;;;;;11.93;2.08;;;;;;;14.33;47.87;93769.47;4941158;28;20059;-77
2023/01/18 09:28:54;;;;;;;14.50;2.08;;;;;;;14.32;48.29;93799.13;4934884;28;20036;-77
2023/01/18 09:31:24;;;;;;;17.77;1.83;;;;;;;13.68;48.38;93723.06;4920307;28;20048;-81
2023/01/18 09:33:49;;;;;;;11.18;1.75;;;;;;;13.62;48.69;93695.06;4912086;28;20046;-78
2023/01/18 09:36:16;;;;;;;11.05;1.73;;;;;;;14.24;48.17;93772.22;4932017;28;20038;-74
2023/01/18 09:38:43;;;;;;;13.48;1.65;;;;;;;14.40;48.29;93782.28;4931016;28;20031;-75
2023/01/18 09:41:29;;;;;;;11.18;2.13;;;;;;;14.43;48.31;93784.28;4941222;28;20450;-75
2023/01/18 09:44:27;;;;;;;12.32;2.38;;;;;;;14.45;49.00;93774.06;4936065;28;20027;-75
2023/01/18 09:47:01;;;;;;;6.43;2.10;;;;;;;14.27;48.44;93765.44;4942064;28;20023;-74
2023/01/18 09:49:39;;;;;;;11.05;2.03;;;;;;;14.44;47.97;93777.84;4922624;29;20039;-76
2023/01/18 09:52:30;;;;;;;13.25;1.95;;;;;;;14.43;47.84;93789.59;4919718;29;20035;-76
2023/01/18 09:55:01;;;;;;;10.02;2.05;;;;;;;14.19;47.88;93734.31;4923949;28;20418;-76
2023/01/18 09:57:50;;;;;;;12.40;2.25;;;;;;;14.47;47.66;93761.19;4937409;28;20031;-75
2023/01/18 10:00:21;;;;;;;13.32;1.65;;;;;;;14.32;47.14;93743.13;4916061;29;20043;-76
2023/01/18 10:02:52;;;;;;;12.77;2.10;;;;;;;14.16;46.93;93806.97;4939520;28;20066;-76
2023/01/18 10:05:23;;;;;;;19.30;2.30;;;;;;;14.17;46.33;93672.56;4910132;28;20122;-76
2023/01/18 10:08:01;;;;;;;8.50;1.50;;;;;;;14.49;46.36;93729.63;4934789;28;20040;-77
2023/01/18 10:10:37;;;;;;;17.85;2.58;;;;;;;14.80;45.81;93809.16;4927368;28;20572;-75
2023/01/18 10:13:36;;;;;;;16.45;2.00;;;;;;;14.74;46.08;93781.88;4938748;28;20109;-75
2023/01/18 10:16:07;;;;;;;4.47;1.65;;;;;;;14.58;46.34;93752.41;4918571;29;20050;-76
2023/01/18 10:18:38;;;;;;;15.65;2.97;;;;;;;14.49;46.79;93721.63;4926394;28;20058;-75
2023/01/18 10:21:06;;;;;;;9.95;1.98;;;;;;;14.12;45.67;93672.75;4957290;28;20052;-76
2023/01/18 10:23:39;;;;;;;8.25;1.40;;;;;;;14.92;45.77;93769.88;4951139;28;20855;-75
2023/01/18 10:26:15;;;;;;;11.95;1.83;;;;;;;15.47;44.74;93789.06;4955040;28;20031;-77
2023/01/18 10:28:47;;;;;;;12.05;1.90;;;;;;;16.14;43.72;93775.72;4931023;28;20074;-75
2023/01/18 10:31:25;;;;;;;10.23;2.42;;;;;;;16.49;42.19;93767.06;4925173;28;20176;-76
2023/01/18 10:33:54;;;;;;;20.45;2.70;;;;;;;16.48;41.62;93816.34;4958568;28;20097;-76
2023/01/18 10:36:22;;;;;;;8.60;1.63;;;;;;;16.80;41.23;93801.91;4939686;28;20053;-76
2023/01/18 10:38:50;;;;;;;12.15;2.13;;;;;;;16.33;40.89;93724.22;4956791;28;20097;-76
2023/01/18 10:41:24;;;;;;;14.23;1.70;;;;;;;17.24;40.54;93842.00;4954793;28;20069;-76
2023/01/18 10:43:50;;;;;;;9.75;2.08;;;;;;;16.74;40.42;93773.06;4960643;28;20030;-75
2023/01/18 10:46:18;;;;;;;7.53;1.67;;;;;;;17.30;40.10;93832.56;4954767;28;20468;-76
2023/01/18 10:48:49;;;;;;;12.07;1.90;;;;;;;17.49;39.37;93775.56;4940350;28;20038;-76
2023/01/18 10:51:36;;;;;;;9.00;1.67;;;;;;;17.74;38.57;93819.78;4936878;28;20046;-76
2023/01/18 10:54:16;;;;;;;13.60;1.58;;;;;;;18.26;38.19;93858.78;4956450;28;20358;-76
2023/01/18 10:56:43;;;;;;;9.07;2.17;;;;;;;18.10;38.94;93843.53;4956874;28;20031;-75
2023/01/18 10:59:23;;;;;;;6.78;1.65;;;;;;;17.47;39.50;93852.88;4957565;28;20410;-76
2023/01/18 11:01:54;;;;;;;11.17;1.70;;;;;;;17.12;40.10;93868.88;4940204;28;20057;-76
2023/01/18 11:04:23;;;;;;;14.18;1.98;;;;;;;16.79;40.48;93842.41;4938339;28;20345;-76
2023/01/18 11:06:53;;;;;;;13.18;2.33;;;;;;;16.59;41.45;93818.19;4935135;28;20190;-75
2023/01/18 11:09:37;;;;;;;9.23;1.85;;;;;;;16.61;41.38;93831.25;4940376;28;20162;-76
2023/01/18 11:12:40;;;;;;;10.70;1.80;;;;;;;16.67;41.28;93813.03;4955452;28;20130;-79
2023/01/18 11:15:14;;;;;;;13.88;2.65;;;;;;;16.82;40.81;93807.69;4950798;28;20317;-78
2023/01/18 11:17:49;;;;;;;10.13;1.67;;;;;;;16.67;40.77;93826.44;4926966;28;20492;-75
2023/01/18 11:20:37;;;;;;;13.43;1.83;;;;;;;16.62;41.22;93832.03;4937150;28;20490;-76
2023/01/18 11:23:20;;;;;;;10.05;2.25;;;;;;;16.48;41.50;93793.03;4911899;29;20059;-76
2023/01/18 11:26:14;;;;;;;10.85;1.80;;;;;;;16.61;40.98;93812.53;4915110;29;20034;-76
2023/01/18 11:28:45;;;;;;;8.43;2.08;;;;;;;16.94;41.26;93812.19;4910673;28;20050;-77
2023/01/18 11:31:16;;;;;;;11.65;2.30;;;;;;;16.41;40.62;93758.06;4919841;28;20153;-76
2023/01/18 11:34:06;;;;;;;14.82;2.30;;;;;;;16.52;40.41;93750.31;4919543;28;20130;-77
2023/01/18 11:36:43;;;;;;;16.90;2.78;;;;;;;16.85;40.28;93747.34;4922381;28;20114;-77
2023/01/18 11:39:32;;;;;;;12.48;2.45;;;;;;;17.33;39.36;93803.16;4926116;28;20526;-76
2023/01/18 11:42:10;;;;;;;18.85;2.58;;;;;;;17.07;39.78;93837.00;4915419;28;20380;-77
2023/01/18 11:44:42;;;;;;;7.13;2.03;;;;;;;16.90;39.72;93792.59;4909537;29;20752;-77
2023/01/18 11:47:18;;;;;;;7.00;1.60;;;;;;;17.11;39.83;93845.88;4916367;29;20039;-77
2023/01/18 11:50:00;;;;;;;17.20;1.88;;;;;;;17.08;39.60;93825.94;4937999;28;20525;-76
2023/01/18 11:52:41;;;;;;;14.60;2.97;;;;;;;17.01;39.12;93792.84;4919494;29;20039;-76
2023/01/18 11:55:34;;;;;;;11.85;2.22;;;;;;;17.24;39.58;93810.59;4936138;28;20034;-77
2023/01/18 11:57:59;;;;;;;17.00;1.98;;;;;;;17.42;38.76;93810.25;4931909;28;20509;-76
2023/01/18 12:00:36;;;;;;;12.38;2.15;;;;;;;17.34;38.63;93814.66;4936179;28;20110;-76
2023/01/18 12:03:16;;;;;;;14.10;2.38;;;;;;;17.57;38.96;93858.47;4937364;28;20122;-77
2023/01/18 12:05:53;;;;;;;10.02;2.28;;;;;;;17.60;38.81;93876.53;4936719;28;20023;-76
2023/01/18 12:09:02;;;;;;;13.48;1.48;;;;;;;17.69;38.37;93860.28;4928726;28;20031;-76
2023/01/18 12:11:44;;;;;;;8.60;1.75;;;;;;;17.44;38.40;93837.47;4935562;28;20035;-78
2023/01/18 12:14:12;;;;;;;16.45;4.00;;;;;;;17.84;39.44;93850.66;4927663;28;20035;-77
2023/01/18 12:16:58;;;;;;;19.15;2.72;;;;;;;17.79;39.11;93872.34;4910612;28;20715;-76
2023/01/18 12:20:01;;;;;;;9.93;1.55;;;;;;;18.30;38.03;93887.28;4895538;29;20175;-79